Terminal Aerodrome Forecast
Issued by NWS

Home | Current Version | Previous Version | Text Only | Print | Product List | Glossary On
Versions: 1 2 3 4 5 6 7 8 9 10 11 12 13 14 15 16 17 18 19 20 21 22
000
FTUS43 KICT 260520
TAFCNU
TAF
KCNU 260520Z 2606/2706 17009KT P6SM VCSH SCT040 BKN100
      TEMPO 2606/2610 VRB15G25KT 4SM SHRA BKN035 OVC070
     FM261000 16005KT 3SM BR SCT005 BKN200
     FM261700 23007KT P6SM SCT030
     FM262000 20008KT P6SM VCTS SCT040CB BKN070=

USA.gov is the U.S. government's official web portal to all federal, state and local government web resources and services.